Valley Mills, IN

4:25 PM EST on December 08, 2016 (GMT -0500)
i-465 and MANN RD | | Change Station

Elev 670 ft 39.69 °N, 86.23 °W | Updated 15 seconds ago

Light Snow
Light Snow
23.8 °F
Feels Like 24 °F
N
2.0
Wind Variable Wind from SSW
Gusts 9.0 mph

Today
High -- | Low -- °F
--% Chance of Precip.
Yesterday
High -- | Low -- °F
Precip. -- in
Pressure 30.40 in
Visibility 9.0 miles
Clouds Overcast 2500 ft
Windchill 24 °F
Dew Point 13 °F
Humidity 63%
Rainfall in
Snow Depth Not available.
7:53 AM 5:20 PM
Waxing Gibbous, 67% visible
METAR KIND 082054Z 28015KT 9SM -SN OVC025 M05/M10 A3036 RMK AO2 SLP293 P0000 60000 T10501100 53010
Pressure 30.40 in
Visibility 9.0 miles
Clouds Overcast 2500 ft
Windchill 24 °F
Dew Point 13 °F
Humidity 63%
Rainfall in
Snow Depth Not available.
7:53 AM 5:20 PM
Waxing Gibbous, 67% visible
METAR KIND 082054Z 28015KT 9SM -SN OVC025 M05/M10 A3036 RMK AO2 SLP293 P0000 60000 T10501100 53010

10-Day Weather Forecast

Almanac

Astronomy

Dec. 08, 2016 Rise Set
Actual Time
Civil Twilight
Nautical Twilight
Astronomical Twilight
Moon
Length of Visible Light
Length of Day
Tomorrow will be .
, % of the Moon is Illuminated

Today's Extremes

State Highs State Lows

Community

WunderPhotos

Upload Photos

1,956,277 photos uploaded!

WunderBlog® & News

Nearby

Air Quality

  Air Quality AQ Index Pollutant
Not available.

Snow Depth

Station Depth Elevation

Earthquake Activity

City Distance Mag. Time & Date
Minimum magnitude displayed is 2.5.

Coastal Water Temperatures

Place Temperature

Stations

Nearby Weather Stations

Station Location Temp. Windchill Dew Point Humidity Wind Precip. Elev Updated Type
                   

Watches & Warnings

There are currently no watches in effect.